Terminal Aerodrome Forecast
Issued by NWS Omaha/Valley, NE

Home | Current Version | Previous Version | Graphics & Text | Print | Product List | Glossary On
Versions: 1 2 3 4 5 6 7 8 9 10 11 12 13 14 15 16 17 18 19 20 21 22 23 24 25 26 27 28 29 30 31 32 33 34 35 36 37 38 39 40 41
000
FTUS43 KOAX 241702 AAB
TAFOFK
TAF AMD
KOFK 241702Z 2417/2512 10010KT 4SM -RA BR BKN008 OVC015
      TEMPO 2417/2418 1SM RA BR BKN004 OVC020
     FM242100 15006KT 4SM BR OVC015
     FM250100 16003KT 4SM BR FEW008 SCT250
     FM250900 29008KT P6SM BKN100=

USA.gov is the U.S. government's official web portal to all federal, state and local government web resources and services.